Time;durP1;ratioP1;P1;durP2;ratioP2;P2;SDS_P1;SDS_P2;PMS_P1;PMS_P2;Temp;Humidity;BMP_temperature;BMP_pressure;BME280_temperature;BME280_humidity;BME280_pressure;Samples;Min_cycle;Max_cycle;Signal;HPM_P1;HPM_P2
2022/02/15 00:01:02;;;;;;;3.28;1.00;;;;;;;;;;4991680;28;20034;-60
2022/02/15 00:03:30;;;;;;;20.40;1.80;;;;;;;;;;4997307;28;20683;-59
2022/02/15 00:05:57;;;;;;;7.57;1.23;;;;;;;;;;5009302;28;20045;-59
2022/02/15 00:08:24;;;;;;;5.88;1.35;;;;;;;;;;4988436;28;21804;-60
2022/02/15 00:10:52;;;;;;;15.60;1.40;;;;;;;;;;4982051;28;20139;-60
2022/02/15 00:13:20;;;;;;;5.93;1.20;;;;;;;;;;4982902;28;20582;-59
2022/02/15 00:15:48;;;;;;;3.15;0.88;;;;;;;;;;4983242;28;20056;-60
2022/02/15 00:18:16;;;;;;;10.65;1.25;;;;;;;;;;4956430;28;20025;-60
2022/02/15 00:20:41;;;;;;;7.18;0.93;;;;;;;;;;5007076;28;20092;-58
2022/02/15 00:23:07;;;;;;;11.55;1.75;;;;;;;;;;5009583;28;20025;-58
2022/02/15 00:25:36;;;;;;;5.18;1.05;;;;;;;;;;5007680;28;20045;-60
2022/02/15 00:28:01;;;;;;;14.27;2.00;;;;;;;;;;5007331;28;20028;-60
2022/02/15 00:30:30;;;;;;;5.70;1.27;;;;;;;;;;4986718;28;20044;-61
2022/02/15 00:32:57;;;;;;;12.27;2.00;;;;;;;;;;4985379;28;20041;-60
2022/02/15 00:35:26;;;;;;;6.22;1.58;;;;;;;;;;5006153;28;20487;-60
2022/02/15 00:37:51;;;;;;;9.35;1.60;;;;;;;;;;4988180;28;20030;-60
2022/02/15 00:40:19;;;;;;;7.57;1.85;;;;;;;;;;4991390;28;20021;-60
2022/02/15 00:42:47;;;;;;;15.65;2.05;;;;;;;;;;4983603;28;20029;-59
2022/02/15 00:45:13;;;;;;;7.57;2.00;;;;;;;;;;5005699;28;20051;-61
2022/02/15 00:47:41;;;;;;;13.63;2.40;;;;;;;;;;5009498;28;20484;-61
2022/02/15 00:50:12;;;;;;;9.13;2.35;;;;;;;;;;4990989;28;20033;-61
2022/02/15 00:52:40;;;;;;;4.85;2.20;;;;;;;;;;4984118;28;20033;-61
2022/02/15 00:55:09;;;;;;;9.60;2.28;;;;;;;;;;5005473;28;20088;-60
2022/02/15 00:57:34;;;;;;;12.48;2.00;;;;;;;;;;4984621;28;20053;-61
2022/02/15 01:00:00;;;;;;;17.58;1.67;;;;;;;;;;4976866;28;20080;-60
2022/02/15 01:02:25;;;;;;;9.40;2.17;;;;;;;;;;4968002;28;20545;-60
2022/02/15 01:04:55;;;;;;;17.10;2.22;;;;;;;;;;4988182;28;20095;-60
2022/02/15 01:07:21;;;;;;;4.75;1.63;;;;;;;;;;4993167;28;20053;-61
2022/02/15 01:09:47;;;;;;;8.15;1.60;;;;;;;;;;4985706;28;21088;-59
2022/02/15 01:12:12;;;;;;;8.35;2.10;;;;;;;;;;4968997;28;20041;-60
2022/02/15 01:14:38;;;;;;;16.05;2.35;;;;;;;;;;4979799;28;20049;-60
2022/02/15 01:17:04;;;;;;;15.85;2.47;;;;;;;;;;4989465;28;20036;-62
2022/02/15 01:19:29;;;;;;;18.83;2.65;;;;;;;;;;5010569;28;20028;-60
2022/02/15 01:21:58;;;;;;;2.80;1.52;;;;;;;;;;5009520;28;20057;-60
2022/02/15 01:24:26;;;;;;;13.68;1.83;;;;;;;;;;4989743;28;20140;-60
2022/02/15 01:26:53;;;;;;;12.43;1.50;;;;;;;;;;4990813;28;20037;-59
2022/02/15 01:29:21;;;;;;;9.05;1.75;;;;;;;;;;4989933;28;20052;-60
2022/02/15 01:31:47;;;;;;;10.38;1.65;;;;;;;;;;4992689;28;20930;-60
2022/02/15 01:34:17;;;;;;;13.73;1.85;;;;;;;;;;4990139;28;21723;-60
2022/02/15 01:36:49;;;;;;;6.85;1.60;;;;;;;;;;4982317;28;20029;-60
2022/02/15 01:39:17;;;;;;;16.83;1.95;;;;;;;;;;5006100;28;20969;-61
2022/02/15 01:41:45;;;;;;;13.48;1.75;;;;;;;;;;4990520;28;20195;-59
2022/02/15 01:44:15;;;;;;;9.88;1.88;;;;;;;;;;4981799;28;20060;-61
2022/02/15 01:46:43;;;;;;;12.35;2.00;;;;;;;;;;5004590;28;20112;-61
2022/02/15 01:49:11;;;;;;;6.35;1.95;;;;;;;;;;4955258;28;20077;-58
2022/02/15 01:51:37;;;;;;;11.57;1.55;;;;;;;;;;4982077;28;20033;-61
2022/02/15 01:54:07;;;;;;;11.32;1.95;;;;;;;;;;4982740;28;20025;-58
2022/02/15 01:56:34;;;;;;;5.72;1.33;;;;;;;;;;4987301;28;20045;-61
2022/02/15 01:59:00;;;;;;;8.00;1.75;;;;;;;;;;4989927;28;20041;-61
2022/02/15 02:01:28;;;;;;;23.35;1.95;;;;;;;;;;5008867;28;20026;-61
2022/02/15 02:03:53;;;;;;;16.60;2.03;;;;;;;;;;4989978;28;20103;-58
2022/02/15 02:06:21;;;;;;;14.00;2.08;;;;;;;;;;4997439;28;20061;-60
2022/02/15 02:08:47;;;;;;;8.68;1.52;;;;;;;;;;4991628;28;20583;-60
2022/02/15 02:11:14;;;;;;;13.10;1.40;;;;;;;;;;4972286;28;20030;-61
2022/02/15 02:13:42;;;;;;;14.40;1.73;;;;;;;;;;4985729;28;20060;-61
2022/02/15 02:16:10;;;;;;;16.05;1.90;;;;;;;;;;4979960;28;20037;-61
2022/02/15 02:18:36;;;;;;;16.58;1.80;;;;;;;;;;4988358;28;20091;-61
2022/02/15 02:21:03;;;;;;;10.07;1.50;;;;;;;;;;5005058;28;20746;-61
2022/02/15 02:23:31;;;;;;;20.65;1.70;;;;;;;;;;5006621;28;20029;-61
2022/02/15 02:25:58;;;;;;;14.48;2.00;;;;;;;;;;5005513;28;20029;-61
2022/02/15 02:28:26;;;;;;;7.93;1.90;;;;;;;;;;5006477;28;20033;-61
2022/02/15 02:30:59;;;;;;;4.03;1.50;;;;;;;;;;4987640;28;20380;-60
2022/02/15 02:33:25;;;;;;;14.93;1.63;;;;;;;;;;5005347;28;21986;-61
2022/02/15 02:36:01;;;;;;;4.90;1.20;;;;;;;;;;4980287;28;20134;-60
2022/02/15 02:38:27;;;;;;;11.70;2.58;;;;;;;;;;5006506;28;20071;-61
2022/02/15 02:40:54;;;;;;;8.05;2.25;;;;;;;;;;5005658;28;20595;-60
2022/02/15 02:43:20;;;;;;;8.80;1.75;;;;;;;;;;4970061;28;20074;-61
2022/02/15 02:45:50;;;;;;;10.90;2.15;;;;;;;;;;4989172;28;20065;-61
2022/02/15 02:48:16;;;;;;;11.38;1.77;;;;;;;;;;4982137;28;20781;-61
2022/02/15 02:50:41;;;;;;;11.10;2.67;;;;;;;;;;5007057;28;20072;-61
2022/02/15 02:53:10;;;;;;;11.27;1.75;;;;;;;;;;4991380;28;20167;-61
2022/02/15 02:55:38;;;;;;;18.63;2.58;;;;;;;;;;4957666;28;21041;-60
2022/02/15 02:58:04;;;;;;;12.77;1.52;;;;;;;;;;5005218;28;20060;-61
2022/02/15 03:00:32;;;;;;;22.27;2.28;;;;;;;;;;5007856;28;20115;-60
2022/02/15 03:03:00;;;;;;;14.30;2.38;;;;;;;;;;4976176;28;20029;-60
2022/02/15 03:05:30;;;;;;;18.88;3.28;;;;;;;;;;5004151;28;20033;-61
2022/02/15 03:07:58;;;;;;;31.00;2.88;;;;;;;;;;4988456;28;20052;-60
2022/02/15 03:10:26;;;;;;;14.52;2.10;;;;;;;;;;4964671;28;20049;-60
2022/02/15 03:12:51;;;;;;;9.95;1.83;;;;;;;;;;4971736;28;20376;-60
2022/02/15 03:15:19;;;;;;;12.63;2.00;;;;;;;;;;5002692;28;20034;-61
2022/02/15 03:17:47;;;;;;;8.60;2.15;;;;;;;;;;5005380;28;20029;-60
2022/02/15 03:20:15;;;;;;;13.60;2.08;;;;;;;;;;4977395;28;20482;-60
2022/02/15 03:22:43;;;;;;;12.35;1.95;;;;;;;;;;4991495;28;20142;-60
2022/02/15 03:25:09;;;;;;;10.60;1.60;;;;;;;;;;5005707;28;20454;-60
2022/02/15 03:27:34;;;;;;;8.35;1.65;;;;;;;;;;5005555;28;20659;-60
2022/02/15 03:30:00;;;;;;;14.32;2.15;;;;;;;;;;4977304;28;20155;-60
2022/02/15 03:32:26;;;;;;;12.13;1.88;;;;;;;;;;5003395;28;20041;-60
2022/02/15 03:34:51;;;;;;;6.43;2.47;;;;;;;;;;4990488;28;20740;-61
2022/02/15 03:37:17;;;;;;;14.68;2.53;;;;;;;;;;5000424;28;20037;-61
2022/02/15 03:39:42;;;;;;;10.60;1.80;;;;;;;;;;5006126;28;21902;-60
2022/02/15 03:44:54;;;;;;;9.13;1.60;;;;;;;;;;5010593;28;20069;-60
2022/02/15 03:47:20;;;;;;;11.30;1.92;;;;;;;;;;4992679;28;20048;-61
2022/02/15 03:49:48;;;;;;;10.45;2.03;;;;;;;;;;4993542;28;20033;-60
2022/02/15 03:52:13;;;;;;;14.10;2.30;;;;;;;;;;5007462;28;20408;-61
2022/02/15 03:54:41;;;;;;;20.50;2.35;;;;;;;;;;5009880;28;20033;-60
2022/02/15 03:57:09;;;;;;;14.07;2.40;;;;;;;;;;4971107;28;20034;-60
2022/02/15 03:59:34;;;;;;;14.52;2.17;;;;;;;;;;4991006;28;20033;-61
2022/02/15 04:02:00;;;;;;;9.50;2.20;;;;;;;;;;5009944;28;20129;-60
2022/02/15 04:04:26;;;;;;;7.93;1.40;;;;;;;;;;4993624;28;20115;-60
2022/02/15 04:06:51;;;;;;;7.18;1.38;;;;;;;;;;4974072;28;20065;-60
2022/02/15 04:09:17;;;;;;;9.48;1.33;;;;;;;;;;4981640;28;20037;-61
2022/02/15 04:11:42;;;;;;;15.80;2.00;;;;;;;;;;5001707;28;20033;-60
2022/02/15 04:14:10;;;;;;;2.83;1.08;;;;;;;;;;5007115;28;20044;-60
2022/02/15 04:16:37;;;;;;;4.03;0.98;;;;;;;;;;5001207;28;20041;-61
2022/02/15 04:19:02;;;;;;;12.38;1.92;;;;;;;;;;4988983;28;20049;-60
2022/02/15 04:21:28;;;;;;;7.40;1.73;;;;;;;;;;5008975;28;20049;-60
2022/02/15 04:23:56;;;;;;;11.48;1.55;;;;;;;;;;4994062;28;20049;-61
2022/02/15 04:26:22;;;;;;;10.13;1.45;;;;;;;;;;4982637;28;20049;-60
2022/02/15 04:28:49;;;;;;;7.90;1.52;;;;;;;;;;5011286;28;20119;-60
2022/02/15 04:31:17;;;;;;;7.18;1.35;;;;;;;;;;4987687;28;20119;-61
2022/02/15 04:33:48;;;;;;;9.07;1.20;;;;;;;;;;5007409;28;20043;-60
2022/02/15 04:36:13;;;;;;;8.00;1.13;;;;;;;;;;5010165;28;20045;-60
2022/02/15 04:38:39;;;;;;;2.03;0.80;;;;;;;;;;5007088;28;20036;-60
2022/02/15 04:41:04;;;;;;;8.80;1.05;;;;;;;;;;4969031;28;20033;-60
2022/02/15 04:43:30;;;;;;;6.13;1.48;;;;;;;;;;5006995;28;20064;-60
2022/02/15 04:45:56;;;;;;;10.80;1.50;;;;;;;;;;4989674;28;20048;-60
2022/02/15 04:48:21;;;;;;;4.68;1.35;;;;;;;;;;4984539;28;20033;-62
2022/02/15 04:50:51;;;;;;;7.53;1.38;;;;;;;;;;5010719;28;20032;-61
2022/02/15 04:53:17;;;;;;;13.95;1.75;;;;;;;;;;4975733;28;20431;-60
2022/02/15 04:59:20;;;;;;;8.00;1.30;;;;;;;;;;5009544;28;20175;-61
2022/02/15 05:01:47;;;;;;;13.70;1.40;;;;;;;;;;4989260;28;20627;-60
2022/02/15 05:06:59;;;;;;;3.05;1.13;;;;;;;;;;4998549;28;20200;-60
2022/02/15 05:09:26;;;;;;;8.55;1.33;;;;;;;;;;5006734;28;20520;-61
2022/02/15 05:11:56;;;;;;;8.80;1.33;;;;;;;;;;5007870;28;20389;-60
2022/02/15 05:14:24;;;;;;;8.85;1.30;;;;;;;;;;5005958;28;20032;-62
2022/02/15 05:16:52;;;;;;;7.28;1.95;;;;;;;;;;4992530;28;20037;-62
2022/02/15 05:19:17;;;;;;;7.45;1.20;;;;;;;;;;5009277;28;20042;-61
2022/02/15 05:21:43;;;;;;;10.32;1.60;;;;;;;;;;5009207;28;20037;-61
2022/02/15 05:24:11;;;;;;;10.77;2.75;;;;;;;;;;5008328;28;20037;-61
2022/02/15 05:26:36;;;;;;;12.27;2.03;;;;;;;;;;4985285;28;20033;-60
2022/02/15 05:29:06;;;;;;;9.98;2.25;;;;;;;;;;5006589;28;20087;-60
2022/02/15 05:31:31;;;;;;;9.45;1.58;;;;;;;;;;5007692;28;21734;-60
2022/02/15 05:33:59;;;;;;;15.50;2.45;;;;;;;;;;5007890;28;20033;-61
2022/02/15 05:36:27;;;;;;;12.07;2.63;;;;;;;;;;4988806;28;20040;-60
2022/02/15 05:38:55;;;;;;;14.20;2.60;;;;;;;;;;4979171;28;20639;-61
2022/02/15 05:41:23;;;;;;;9.55;2.60;;;;;;;;;;5005846;28;20036;-61
2022/02/15 05:43:48;;;;;;;10.82;3.03;;;;;;;;;;5006271;28;20040;-60
2022/02/15 05:46:18;;;;;;;8.60;2.25;;;;;;;;;;5009428;28;20530;-61
2022/02/15 05:48:44;;;;;;;17.20;2.85;;;;;;;;;;5007964;28;20044;-61
2022/02/15 05:51:14;;;;;;;12.48;2.83;;;;;;;;;;4997562;28;20034;-61
2022/02/15 05:53:42;;;;;;;12.63;2.75;;;;;;;;;;5004752;28;20052;-61
2022/02/15 05:56:12;;;;;;;18.20;3.47;;;;;;;;;;5008212;28;21011;-61
2022/02/15 05:58:38;;;;;;;11.52;2.65;;;;;;;;;;5007444;28;20784;-61
2022/02/15 06:01:06;;;;;;;16.67;3.50;;;;;;;;;;5008774;28;20119;-61
2022/02/15 06:06:21;;;;;;;11.05;2.40;;;;;;;;;;5008462;28;20079;-61
2022/02/15 06:08:49;;;;;;;10.40;3.35;;;;;;;;;;5009311;28;20041;-62
2022/02/15 06:11:19;;;;;;;13.00;2.75;;;;;;;;;;4984039;28;20441;-61
2022/02/15 06:13:45;;;;;;;11.38;2.90;;;;;;;;;;4966204;28;20037;-61
2022/02/15 06:16:12;;;;;;;6.55;3.28;;;;;;;;;;4974823;28;20060;-60
2022/02/15 06:18:38;;;;;;;11.35;3.03;;;;;;;;;;4975760;28;20025;-61
2022/02/15 06:21:05;;;;;;;9.90;3.20;;;;;;;;;;4991331;28;20060;-59
2022/02/15 06:23:33;;;;;;;13.43;3.38;;;;;;;;;;4971113;28;21008;-61
2022/02/15 06:25:59;;;;;;;13.20;3.40;;;;;;;;;;4982687;28;20040;-61
2022/02/15 06:28:27;;;;;;;10.90;3.85;;;;;;;;;;4998194;28;20030;-61
2022/02/15 06:30:56;;;;;;;18.20;4.38;;;;;;;;;;4963008;28;20059;-62
2022/02/15 06:33:24;;;;;;;17.95;4.00;;;;;;;;;;4987430;28;20045;-62
2022/02/15 06:35:50;;;;;;;13.82;4.22;;;;;;;;;;4987164;28;20059;-61
2022/02/15 06:38:18;;;;;;;10.18;4.28;;;;;;;;;;4990553;28;20068;-61
2022/02/15 06:40:43;;;;;;;27.27;4.70;;;;;;;;;;5006559;28;20026;-61
2022/02/15 06:43:11;;;;;;;19.42;4.25;;;;;;;;;;4987883;28;20054;-61
2022/02/15 06:45:39;;;;;;;12.52;4.28;;;;;;;;;;4952705;28;20789;-62
2022/02/15 06:48:06;;;;;;;18.30;4.38;;;;;;;;;;5008217;28;20139;-61
2022/02/15 06:50:35;;;;;;;17.20;4.25;;;;;;;;;;4972056;28;20198;-61
2022/02/15 06:53:03;;;;;;;16.75;4.45;;;;;;;;;;4981221;28;20182;-61
2022/02/15 06:55:28;;;;;;;19.80;5.43;;;;;;;;;;5007756;28;20033;-62
2022/02/15 06:57:57;;;;;;;16.00;4.97;;;;;;;;;;5008096;28;20030;-61
2022/02/15 07:00:25;;;;;;;17.58;5.00;;;;;;;;;;4984195;28;21045;-62
2022/02/15 07:02:54;;;;;;;15.95;5.00;;;;;;;;;;5009085;28;21315;-60
2022/02/15 07:05:22;;;;;;;24.45;4.97;;;;;;;;;;5006816;28;20179;-61
2022/02/15 07:07:53;;;;;;;18.00;6.28;;;;;;;;;;4982792;28;20091;-60
2022/02/15 07:10:21;;;;;;;23.13;6.18;;;;;;;;;;5006406;28;20043;-61
2022/02/15 07:12:49;;;;;;;22.45;5.35;;;;;;;;;;4976041;28;22005;-62
2022/02/15 07:15:17;;;;;;;19.13;4.32;;;;;;;;;;4953764;28;20037;-61
2022/02/15 07:17:42;;;;;;;16.55;5.68;;;;;;;;;;5006075;28;20037;-61
2022/02/15 07:20:08;;;;;;;19.50;5.22;;;;;;;;;;4988196;28;20029;-61
2022/02/15 07:22:34;;;;;;;36.55;5.47;;;;;;;;;;5008002;28;20668;-60
2022/02/15 07:24:59;;;;;;;25.13;5.57;;;;;;;;;;4997390;28;20064;-61
2022/02/15 07:27:26;;;;;;;14.68;5.90;;;;;;;;;;4990685;28;20834;-61
2022/02/15 07:29:52;;;;;;;29.13;6.07;;;;;;;;;;4967940;28;20083;-61
2022/02/15 07:32:24;;;;;;;20.85;6.22;;;;;;;;;;5005981;28;20519;-62
2022/02/15 07:34:52;;;;;;;19.15;5.63;;;;;;;;;;4988240;28;20381;-61
2022/02/15 07:37:17;;;;;;;20.10;5.63;;;;;;;;;;4989215;28;20115;-61
2022/02/15 07:39:43;;;;;;;15.48;6.40;;;;;;;;;;4969752;28;20053;-61
2022/02/15 07:42:08;;;;;;;27.83;6.90;;;;;;;;;;5005464;28;20056;-61
2022/02/15 07:44:34;;;;;;;17.35;6.68;;;;;;;;;;5003912;28;20032;-62
2022/02/15 07:47:02;;;;;;;16.42;5.82;;;;;;;;;;4996426;28;20036;-61
2022/02/15 07:49:31;;;;;;;22.75;5.95;;;;;;;;;;4979397;28;20040;-61
2022/02/15 07:51:59;;;;;;;19.90;7.40;;;;;;;;;;4996362;28;20026;-61
2022/02/15 07:54:27;;;;;;;20.85;7.32;;;;;;;;;;4995832;28;20049;-61
2022/02/15 07:56:55;;;;;;;19.25;7.35;;;;;;;;;;5004899;28;21021;-61
2022/02/15 07:59:23;;;;;;;18.67;7.15;;;;;;;;;;5005057;28;20029;-61
2022/02/15 08:01:48;;;;;;;27.48;6.20;;;;;;;;;;4980629;28;20049;-61
2022/02/15 08:04:20;;;;;;;22.02;6.40;;;;;;;;;;4977294;28;20053;-61
2022/02/15 08:06:48;;;;;;;28.55;7.53;;;;;;;;;;4996961;28;20093;-61
2022/02/15 08:09:16;;;;;;;31.80;6.50;;;;;;;;;;5003786;28;20107;-61
2022/02/15 08:11:44;;;;;;;23.70;6.05;;;;;;;;;;4988827;28;20042;-61
2022/02/15 08:14:12;;;;;;;12.52;6.03;;;;;;;;;;5006692;28;20084;-62
2022/02/15 08:16:38;;;;;;;21.92;5.70;;;;;;;;;;4978902;28;20040;-61
2022/02/15 08:19:03;;;;;;;15.52;5.93;;;;;;;;;;4989368;28;20025;-62
2022/02/15 08:21:29;;;;;;;21.92;6.65;;;;;;;;;;5010181;28;20044;-61
2022/02/15 08:23:55;;;;;;;24.38;5.88;;;;;;;;;;4983613;28;20041;-61
2022/02/15 08:26:25;;;;;;;17.40;6.80;;;;;;;;;;5010689;28;20045;-61
2022/02/15 08:28:56;;;;;;;18.50;5.60;;;;;;;;;;4993086;28;20073;-61
2022/02/15 08:31:21;;;;;;;20.70;5.72;;;;;;;;;;4967805;28;20130;-62
2022/02/15 08:33:49;;;;;;;20.67;5.20;;;;;;;;;;4976012;28;20029;-62
2022/02/15 08:36:17;;;;;;;21.42;5.50;;;;;;;;;;4992760;28;20037;-62
2022/02/15 08:38:45;;;;;;;14.80;5.72;;;;;;;;;;4992131;28;20121;-62
2022/02/15 08:41:14;;;;;;;14.00;5.63;;;;;;;;;;5009312;28;20824;-62
2022/02/15 08:43:41;;;;;;;17.45;6.30;;;;;;;;;;4956387;28;20021;-60
2022/02/15 08:46:09;;;;;;;18.05;5.38;;;;;;;;;;5008084;28;20025;-60
2022/02/15 08:48:37;;;;;;;28.42;6.53;;;;;;;;;;4983634;28;20111;-61
2022/02/15 08:51:02;;;;;;;13.13;5.10;;;;;;;;;;4986680;28;20043;-60
2022/02/15 08:53:30;;;;;;;22.02;6.07;;;;;;;;;;5008532;28;20023;-61
2022/02/15 08:55:56;;;;;;;19.10;5.03;;;;;;;;;;4982955;28;20053;-61
2022/02/15 08:58:24;;;;;;;10.35;4.78;;;;;;;;;;4974272;28;20029;-61
2022/02/15 09:00:49;;;;;;;14.18;5.32;;;;;;;;;;4991687;28;20032;-61
2022/02/15 09:03:15;;;;;;;21.42;5.60;;;;;;;;;;4993383;28;20036;-61
2022/02/15 09:05:41;;;;;;;17.83;5.47;;;;;;;;;;4990507;28;20044;-61
2022/02/15 09:08:09;;;;;;;20.63;5.55;;;;;;;;;;5007428;28;20045;-60
2022/02/15 09:10:38;;;;;;;13.18;4.38;;;;;;;;;;4965016;28;20033;-61
2022/02/15 09:13:04;;;;;;;18.05;5.25;;;;;;;;;;4976406;28;20044;-62
2022/02/15 09:15:34;;;;;;;12.80;5.40;;;;;;;;;;4987986;28;20487;-60
2022/02/15 09:18:02;;;;;;;18.88;5.10;;;;;;;;;;4976033;28;20152;-61
2022/02/15 09:20:28;;;;;;;23.35;5.65;;;;;;;;;;5006752;28;20276;-62
2022/02/15 09:22:53;;;;;;;18.88;5.45;;;;;;;;;;4984460;28;20577;-61
2022/02/15 09:25:21;;;;;;;17.77;5.07;;;;;;;;;;5010490;28;20041;-61
2022/02/15 09:27:50;;;;;;;19.65;5.10;;;;;;;;;;5006512;28;20036;-61
2022/02/15 09:30:16;;;;;;;13.68;4.78;;;;;;;;;;5008855;28;20087;-60
2022/02/15 09:32:44;;;;;;;16.20;4.63;;;;;;;;;;5007774;28;20125;-60
2022/02/15 09:35:15;;;;;;;14.63;4.53;;;;;;;;;;4992121;28;20037;-59
2022/02/15 09:37:42;;;;;;;18.77;4.40;;;;;;;;;;4991669;28;20144;-60
2022/02/15 09:40:08;;;;;;;9.18;4.28;;;;;;;;;;4988859;28;20515;-61
2022/02/15 09:42:39;;;;;;;15.15;4.55;;;;;;;;;;4999352;28;20033;-62
2022/02/15 09:45:06;;;;;;;9.07;3.90;;;;;;;;;;5009037;28;20124;-61
2022/02/15 09:47:32;;;;;;;18.48;4.15;;;;;;;;;;5005615;28;20063;-62
2022/02/15 09:49:59;;;;;;;14.68;3.83;;;;;;;;;;5007178;28;20037;-61
2022/02/15 09:52:24;;;;;;;12.80;4.07;;;;;;;;;;4988899;28;21652;-61
2022/02/15 09:54:55;;;;;;;14.70;3.45;;;;;;;;;;5387869;22;20499;-61
2022/02/15 09:57:21;;;;;;;13.95;3.75;;;;;;;;;;5003049;28;20025;-62
2022/02/15 09:59:52;;;;;;;13.18;3.90;;;;;;;;;;5006824;28;20395;-61
2022/02/15 10:02:27;;;;;;;12.55;3.53;;;;;;;;;;5005494;28;20032;-61
2022/02/15 10:04:58;;;;;;;13.25;2.92;;;;;;;;;;5003069;28;20041;-61
2022/02/15 10:10:39;;;;;;;10.88;3.47;;;;;;;;;;4963583;28;20043;-62
2022/02/15 10:13:08;;;;;;;17.50;3.97;;;;;;;;;;5003774;28;20667;-62
2022/02/15 10:15:39;;;;;;;10.73;3.10;;;;;;;;;;5006241;28;20049;-61
2022/02/15 10:21:42;;;;;;;7.60;2.20;;;;;;;;;;5005841;28;21924;-62
2022/02/15 10:24:17;;;;;;;10.93;2.63;;;;;;;;;;5002887;28;20030;-62
2022/02/15 10:26:54;;;;;;;9.17;2.80;;;;;;;;;;5006199;28;20555;-62
2022/02/15 10:32:33;;;;;;;7.10;2.47;;;;;;;;;;4998865;28;20064;-62
2022/02/15 10:35:02;;;;;;;11.20;2.30;;;;;;;;;;4969345;28;20110;-62
2022/02/15 10:37:29;;;;;;;7.40;2.17;;;;;;;;;;5004214;28;20033;-61
2022/02/15 10:40:03;;;;;;;12.68;3.00;;;;;;;;;;5000972;28;20060;-61
2022/02/15 10:42:34;;;;;;;9.55;2.25;;;;;;;;;;5001644;28;20080;-60
2022/02/15 10:45:04;;;;;;;10.70;3.05;;;;;;;;;;4987119;28;20062;-62
2022/02/15 10:47:33;;;;;;;6.60;2.90;;;;;;;;;;4986892;28;20040;-62
2022/02/15 10:50:03;;;;;;;15.65;3.22;;;;;;;;;;4987588;28;20049;-62
2022/02/15 10:53:01;;;;;;;9.48;3.03;;;;;;;;;;5005109;28;20041;-61
2022/02/15 10:55:26;;;;;;;8.50;2.72;;;;;;;;;;4981862;28;20083;-61
2022/02/15 10:58:01;;;;;;;8.93;2.65;;;;;;;;;;5005689;28;20038;-62
2022/02/15 11:00:29;;;;;;;5.90;2.35;;;;;;;;;;5002682;28;20026;-61
2022/02/15 11:02:55;;;;;;;4.78;2.55;;;;;;;;;;4986723;28;21319;-60
2022/02/15 11:05:21;;;;;;;8.88;2.67;;;;;;;;;;4985106;28;20033;-59
2022/02/15 11:08:05;;;;;;;9.57;2.42;;;;;;;;;;5003081;28;20037;-61
2022/02/15 11:10:39;;;;;;;6.80;2.30;;;;;;;;;;4984869;28;20042;-60
2022/02/15 11:13:07;;;;;;;12.32;2.75;;;;;;;;;;5004487;28;20365;-60
2022/02/15 11:15:38;;;;;;;5.22;2.15;;;;;;;;;;5004538;28;20515;-61
2022/02/15 11:18:19;;;;;;;6.60;2.38;;;;;;;;;;5001987;28;20441;-60
2022/02/15 11:20:50;;;;;;;6.63;2.53;;;;;;;;;;5002332;28;20054;-60
2022/02/15 11:23:19;;;;;;;3.28;1.70;;;;;;;;;;4971873;28;20091;-60
2022/02/15 11:25:50;;;;;;;18.52;2.10;;;;;;;;;;4987199;28;20029;-61
2022/02/15 11:28:17;;;;;;;6.97;1.80;;;;;;;;;;4983693;28;22067;-62
2022/02/15 11:30:43;;;;;;;2.95;1.42;;;;;;;;;;4999847;28;20040;-62
2022/02/15 11:33:29;;;;;;;9.02;1.88;;;;;;;;;;5001975;28;20037;-60
2022/02/15 11:35:55;;;;;;;3.25;1.55;;;;;;;;;;5001763;28;20037;-61
2022/02/15 11:38:24;;;;;;;7.97;1.40;;;;;;;;;;5004992;28;20018;-62
2022/02/15 11:41:07;;;;;;;7.53;2.00;;;;;;;;;;5005983;28;20064;-60
2022/02/15 11:43:35;;;;;;;13.13;2.15;;;;;;;;;;4986151;28;20033;-60
2022/02/15 11:46:04;;;;;;;7.55;2.17;;;;;;;;;;4986392;28;21146;-61
2022/02/15 11:48:39;;;;;;;11.02;1.80;;;;;;;;;;5002451;28;20103;-61
2022/02/15 11:54:39;;;;;;;3.72;1.15;;;;;;;;;;5006418;28;20036;-64
2022/02/15 11:57:09;;;;;;;6.75;1.25;;;;;;;;;;4983547;28;20038;-63
2022/02/15 11:59:35;;;;;;;4.82;1.48;;;;;;;;;;4982908;28;20121;-60
2022/02/15 12:02:02;;;;;;;5.35;1.40;;;;;;;;;;4982982;28;20028;-58
2022/02/15 12:04:30;;;;;;;5.05;0.85;;;;;;;;;;4969901;28;20034;-61
2022/02/15 12:07:01;;;;;;;8.50;2.00;;;;;;;;;;4985973;28;20030;-62
2022/02/15 12:09:27;;;;;;;7.18;1.77;;;;;;;;;;4985649;28;20088;-62
2022/02/15 12:11:53;;;;;;;2.97;1.35;;;;;;;;;;4985702;28;20041;-62
2022/02/15 12:14:22;;;;;;;6.82;1.52;;;;;;;;;;4985154;28;20206;-61
2022/02/15 12:16:51;;;;;;;4.90;1.20;;;;;;;;;;4988430;28;20034;-61
2022/02/15 12:19:22;;;;;;;6.50;1.30;;;;;;;;;;4986936;28;20118;-61
2022/02/15 12:21:47;;;;;;;2.78;0.90;;;;;;;;;;4977954;28;20041;-62
2022/02/15 12:24:13;;;;;;;6.78;1.33;;;;;;;;;;4968337;28;20747;-60
2022/02/15 12:26:39;;;;;;;4.55;0.95;;;;;;;;;;4983694;28;20041;-62
2022/02/15 12:29:07;;;;;;;3.78;1.13;;;;;;;;;;4961848;28;20360;-61
2022/02/15 12:31:37;;;;;;;5.97;1.08;;;;;;;;;;4967997;28;21047;-61
2022/02/15 12:34:06;;;;;;;9.00;1.20;;;;;;;;;;4960905;28;20052;-58
2022/02/15 12:36:35;;;;;;;5.72;0.80;;;;;;;;;;4982785;28;20029;-62
2022/02/15 12:39:05;;;;;;;2.22;0.77;;;;;;;;;;4983339;28;20041;-62
2022/02/15 12:41:33;;;;;;;1.80;0.55;;;;;;;;;;4966641;28;20749;-59
2022/02/15 12:44:02;;;;;;;7.97;1.13;;;;;;;;;;4984019;28;20030;-61
2022/02/15 12:46:28;;;;;;;7.32;0.88;;;;;;;;;;4983673;28;22122;-60
2022/02/15 12:52:34;;;;;;;4.80;1.03;;;;;;;;;;4985063;28;20064;-61
2022/02/15 12:55:09;;;;;;;5.00;1.02;;;;;;;;;;4986658;28;20037;-60
2022/02/15 12:58:09;;;;;;;13.40;1.02;;;;;;;;;;5008543;28;20492;-62
2022/02/15 13:00:38;;;;;;;7.72;1.40;;;;;;;;;;4988954;28;20033;-61
2022/02/15 13:03:04;;;;;;;5.28;0.80;;;;;;;;;;4978258;28;20164;-61
2022/02/15 13:05:38;;;;;;;5.07;1.00;;;;;;;;;;4991270;28;20063;-61
2022/02/15 13:08:17;;;;;;;4.88;0.90;;;;;;;;;;4988318;28;20083;-61
2022/02/15 13:10:56;;;;;;;8.05;1.23;;;;;;;;;;5008342;28;20037;-60
2022/02/15 13:13:24;;;;;;;10.27;1.23;;;;;;;;;;5011287;28;20469;-61
2022/02/15 13:16:03;;;;;;;8.32;1.20;;;;;;;;;;5008036;28;20082;-61
2022/02/15 13:18:28;;;;;;;7.35;1.10;;;;;;;;;;4990210;28;20080;-60
2022/02/15 13:20:54;;;;;;;6.95;0.82;;;;;;;;;;5005853;28;20046;-60
2022/02/15 13:23:19;;;;;;;6.18;0.93;;;;;;;;;;4991378;28;20102;-60
2022/02/15 13:25:49;;;;;;;6.47;0.68;;;;;;;;;;4977262;28;21281;-61
2022/02/15 13:28:18;;;;;;;2.08;0.90;;;;;;;;;;5007720;28;20037;-60
2022/02/15 13:30:50;;;;;;;5.03;1.02;;;;;;;;;;4991656;28;20029;-60
2022/02/15 13:33:18;;;;;;;4.13;1.02;;;;;;;;;;5008290;28;20539;-59
2022/02/15 13:35:44;;;;;;;6.45;1.25;;;;;;;;;;5008737;28;20079;-59
2022/02/15 13:38:17;;;;;;;6.47;0.90;;;;;;;;;;5004995;28;20480;-59
2022/02/15 13:40:42;;;;;;;3.17;0.68;;;;;;;;;;4989743;28;20077;-60
2022/02/15 13:46:46;;;;;;;5.00;0.95;;;;;;;;;;5008793;28;20178;-60
2022/02/15 13:49:12;;;;;;;4.90;0.95;;;;;;;;;;4992950;28;20037;-59
2022/02/15 13:51:40;;;;;;;5.70;1.02;;;;;;;;;;5006703;28;20109;-59
2022/02/15 13:54:07;;;;;;;5.15;0.85;;;;;;;;;;5006211;28;20037;-60
2022/02/15 13:56:34;;;;;;;11.85;1.00;;;;;;;;;;5008267;28;20665;-59
2022/02/15 13:59:05;;;;;;;7.80;1.17;;;;;;;;;;5006557;28;21840;-58
2022/02/15 14:01:36;;;;;;;2.97;1.00;;;;;;;;;;4973405;28;20041;-58
2022/02/15 14:04:02;;;;;;;7.80;1.23;;;;;;;;;;4990556;28;20064;-58
2022/02/15 14:06:30;;;;;;;7.38;1.58;;;;;;;;;;5006368;28;20378;-59
2022/02/15 14:08:58;;;;;;;6.82;1.15;;;;;;;;;;4970892;28;20491;-59
2022/02/15 14:11:23;;;;;;;6.60;1.15;;;;;;;;;;4992441;28;20059;-58
2022/02/15 14:13:49;;;;;;;4.30;0.85;;;;;;;;;;5007648;28;20561;-59
2022/02/15 14:16:17;;;;;;;10.43;1.38;;;;;;;;;;4991033;28;20026;-59
2022/02/15 14:18:47;;;;;;;4.00;0.90;;;;;;;;;;5006369;28;20034;-59
2022/02/15 14:21:13;;;;;;;6.53;0.98;;;;;;;;;;4992419;28;20079;-59
2022/02/15 14:23:39;;;;;;;8.23;1.75;;;;;;;;;;4995294;28;20021;-59
2022/02/15 14:26:08;;;;;;;3.78;1.27;;;;;;;;;;4991734;28;20042;-58
2022/02/15 14:28:45;;;;;;;3.42;0.80;;;;;;;;;;4993042;28;20029;-61
2022/02/15 14:31:10;;;;;;;10.98;1.30;;;;;;;;;;5007807;28;20655;-60
2022/02/15 14:33:53;;;;;;;4.40;0.98;;;;;;;;;;4988361;28;20055;-60
2022/02/15 14:36:21;;;;;;;3.40;1.00;;;;;;;;;;5007473;28;20045;-58
2022/02/15 14:38:48;;;;;;;5.10;1.05;;;;;;;;;;5007325;28;20037;-59
2022/02/15 14:41:14;;;;;;;2.15;0.82;;;;;;;;;;4991588;28;20041;-59
2022/02/15 14:43:41;;;;;;;7.18;0.80;;;;;;;;;;5003272;28;20552;-59
2022/02/15 14:46:09;;;;;;;7.57;1.77;;;;;;;;;;5006308;28;20104;-59
2022/02/15 14:48:39;;;;;;;1.75;0.57;;;;;;;;;;5006278;28;20126;-59
2022/02/15 14:51:05;;;;;;;3.35;0.65;;;;;;;;;;5007724;28;20030;-60
2022/02/15 14:53:30;;;;;;;9.45;1.25;;;;;;;;;;4990525;28;20594;-60
2022/02/15 14:55:56;;;;;;;8.73;1.45;;;;;;;;;;4972157;28;20092;-58
2022/02/15 14:58:27;;;;;;;10.90;2.00;;;;;;;;;;5006758;28;20144;-58
2022/02/15 15:00:53;;;;;;;1.67;0.65;;;;;;;;;;5005746;28;21928;-58
2022/02/15 15:03:18;;;;;;;7.53;0.93;;;;;;;;;;4988827;28;20056;-58
2022/02/15 15:06:22;;;;;;;3.45;1.48;;;;;;;;;;5008129;28;20061;-59
2022/02/15 15:09:02;;;;;;;3.65;1.00;;;;;;;;;;5006459;28;20037;-60
2022/02/15 15:12:08;;;;;;;3.00;1.05;;;;;;;;;;5006823;28;20022;-59
2022/02/15 15:14:33;;;;;;;7.10;1.23;;;;;;;;;;5004250;28;20389;-58